createdAt,value
2023-10-22T00:00:09.443Z,95386.34
2023-10-22T00:02:36.922Z,95385.19
2023-10-22T00:05:07.412Z,95387.81
2023-10-22T00:07:34.752Z,95389.31
2023-10-22T00:10:01.373Z,95377.25
2023-10-22T00:12:28.490Z,95374.63
2023-10-22T00:14:55.312Z,95386.66
2023-10-22T00:17:21.973Z,95382.19
2023-10-22T00:19:48.620Z,95382.94
2023-10-22T00:22:16.685Z,95384.06
2023-10-22T00:24:44.517Z,95388.25
2023-10-22T00:27:11.387Z,95391.25
2023-10-22T00:29:38.146Z,95398.44
2023-10-22T00:32:04.880Z,95396.16
2023-10-22T00:34:31.481Z,95404.13
2023-10-22T00:36:58.208Z,95407.50
2023-10-22T00:39:24.982Z,95410.91
2023-10-22T00:41:51.671Z,95415.44
2023-10-22T00:44:18.267Z,95409.03
2023-10-22T00:46:46.960Z,95407.13
2023-10-22T00:49:13.877Z,95402.56
2023-10-22T00:51:40.719Z,95410.91
2023-10-22T00:54:07.882Z,95398.78
2023-10-22T00:56:35.839Z,95398.38
2023-10-22T00:59:02.740Z,95408.59
2023-10-22T01:01:29.538Z,95403.69
2023-10-22T01:03:56.212Z,95427.94
2023-10-22T01:06:23.056Z,95419.56
2023-10-22T01:08:50.218Z,95425.28
2023-10-22T01:11:16.887Z,95416.19
2023-10-22T01:13:43.405Z,95416.22
2023-10-22T01:16:10.131Z,95422.25
2023-10-22T01:18:37.328Z,95409.34
2023-10-22T01:21:07.245Z,95404.84
2023-10-22T01:23:40.367Z,95398.03
2023-10-22T01:26:08.084Z,95419.94
2023-10-22T01:28:35.528Z,95424.09
2023-10-22T01:31:02.221Z,95422.97
2023-10-22T01:33:28.895Z,95423.34
2023-10-22T01:35:55.572Z,95408.97
2023-10-22T01:38:22.218Z,95415.41
2023-10-22T01:40:48.818Z,95403.31
2023-10-22T01:43:15.337Z,95418.44
2023-10-22T01:45:41.905Z,95419.94
2023-10-22T01:48:08.639Z,95419.16
2023-10-22T01:50:35.654Z,95413.13
2023-10-22T01:53:02.971Z,95419.16
2023-10-22T01:55:29.560Z,95433.91
2023-10-22T01:57:56.176Z,95434.28
2023-10-22T02:00:22.994Z,95439.59
2023-10-22T02:02:50.152Z,95439.97
2023-10-22T02:05:17.266Z,95432.78
2023-10-22T02:07:44.083Z,95443.38
2023-10-22T02:10:11.135Z,95442.22
2023-10-22T02:12:38.227Z,95444.13
2023-10-22T02:15:05.857Z,95427.47
2023-10-22T02:17:32.517Z,95430.50
2023-10-22T02:19:59.164Z,95430.50
2023-10-22T02:22:25.734Z,95434.28
2023-10-22T02:24:52.507Z,95438.06
2023-10-22T02:27:19.150Z,95435.81
2023-10-22T02:29:45.758Z,95442.22
2023-10-22T02:32:12.579Z,95428.59
2023-10-22T02:34:39.552Z,95448.31
2023-10-22T02:37:06.639Z,95445.25
2023-10-22T02:39:33.612Z,95457.03
2023-10-22T02:42:00.441Z,95455.50
2023-10-22T02:44:27.129Z,95446.44
2023-10-22T02:46:54.028Z,95454.75
2023-10-22T02:49:21.144Z,95443.00
2023-10-22T02:51:49.025Z,95444.84
2023-10-22T02:54:16.479Z,95437.31
2023-10-22T02:56:43.833Z,95457.78
2023-10-22T02:59:13.649Z,95446.75
2023-10-22T03:01:40.474Z,95451.69
2023-10-22T03:04:07.273Z,95473.28
2023-10-22T03:06:33.874Z,95462.69
2023-10-22T03:09:00.390Z,95465.72
2023-10-22T03:11:27.378Z,95471.75
2023-10-22T03:13:53.908Z,95471.75
2023-10-22T03:16:20.822Z,95485.75
2023-10-22T03:18:48.349Z,95481.91
2023-10-22T03:21:17.861Z,95485.75
2023-10-22T03:23:45.082Z,95480.38
2023-10-22T03:26:13.159Z,95494.00
2023-10-22T03:28:40.367Z,95479.63
2023-10-22T03:31:07.022Z,95503.91
2023-10-22T03:33:34.043Z,95493.66
2023-10-22T03:36:01.290Z,95502.00
2023-10-22T03:38:28.275Z,95492.16
2023-10-22T03:41:03.397Z,95488.69
2023-10-22T03:43:31.127Z,95506.09
2023-10-22T03:45:58.427Z,95504.59
2023-10-22T03:48:26.550Z,95493.22
2023-10-22T03:50:53.833Z,95503.81
2023-10-22T03:53:20.821Z,95503.41
2023-10-22T03:55:47.379Z,95485.63
2023-10-22T03:58:13.958Z,95503.03
2023-10-22T04:00:40.825Z,95500.00
2023-10-22T04:03:07.506Z,95496.22
2023-10-22T04:05:34.300Z,95496.19
2023-10-22T04:08:00.847Z,95505.66
2023-10-22T04:10:27.557Z,95507.53
2023-10-22T04:12:54.089Z,95501.81
2023-10-22T04:15:21.771Z,95516.22
2023-10-22T04:17:48.566Z,95512.44
2023-10-22T04:20:15.225Z,95515.47
2023-10-22T04:22:45.177Z,95512.44
2023-10-22T04:25:13.581Z,95513.56
2023-10-22T04:27:40.234Z,95513.97
2023-10-22T04:30:08.878Z,95514.69
2023-10-22T04:32:36.283Z,95519.63
2023-10-22T04:35:03.366Z,95525.28
2023-10-22T04:37:29.961Z,95512.41
2023-10-22T04:39:59.522Z,95516.94
2023-10-22T04:42:28.928Z,95529.44
2023-10-22T04:44:56.313Z,95532.81
2023-10-22T04:47:23.429Z,95530.56
2023-10-22T04:49:54.583Z,95528.63
2023-10-22T04:52:35.399Z,95524.44
2023-10-22T04:55:02.187Z,95532.78
2023-10-22T04:57:29.190Z,95535.78
2023-10-22T04:59:55.974Z,95536.19
2023-10-22T05:02:22.589Z,95539.25
2023-10-22T05:04:51.813Z,95542.63
2023-10-22T05:07:18.762Z,95531.66
2023-10-22T05:09:45.606Z,95547.16
2023-10-22T05:12:12.237Z,95533.53
2023-10-22T05:14:39.126Z,95546.78
2023-10-22T05:17:06.755Z,95551.69
2023-10-22T05:19:34.262Z,95559.97
2023-10-22T05:22:01.058Z,95571.75
2023-10-22T05:24:27.763Z,95567.56
2023-10-22T05:26:54.774Z,95572.09
2023-10-22T05:29:21.327Z,95568.69
2023-10-22T05:31:48.050Z,95576.28
2023-10-22T05:34:14.769Z,95565.69
2023-10-22T05:36:41.367Z,95577.78
2023-10-22T05:39:07.955Z,95590.66
2023-10-22T05:41:34.718Z,95585.72
2023-10-22T05:44:03.692Z,95594.06
2023-10-22T05:46:35.578Z,95603.50
2023-10-22T05:49:02.426Z,95606.94
2023-10-22T05:51:29.011Z,95601.59
2023-10-22T05:53:55.626Z,95602.72
2023-10-22T05:56:24.566Z,95609.94
2023-10-22T05:58:51.127Z,95598.53
2023-10-22T06:01:18.140Z,95618.63
2023-10-22T06:03:47.456Z,95611.00
2023-10-22T06:06:19.028Z,95626.53
2023-10-22T06:08:46.881Z,95626.97
2023-10-22T06:11:13.925Z,95636.75
2023-10-22T06:13:40.442Z,95640.91
2023-10-22T06:16:08.855Z,95646.59
2023-10-22T06:18:35.629Z,95648.50
2023-10-22T06:21:10.643Z,95656.06
2023-10-22T06:23:37.139Z,95666.25
2023-10-22T06:26:03.630Z,95660.97
2023-10-22T06:28:30.111Z,95673.44
2023-10-22T06:31:13.472Z,95664.00
2023-10-22T06:33:41.549Z,95673.09
2023-10-22T06:36:19.031Z,95671.97
2023-10-22T06:38:47.442Z,95673.13
2023-10-22T06:41:25.157Z,95664.13
2023-10-22T06:43:51.755Z,95676.66
2023-10-22T06:46:18.815Z,95678.16
2023-10-22T06:48:46.034Z,95674.41
2023-10-22T06:51:14.593Z,95675.22
2023-10-22T06:53:41.189Z,95686.22
2023-10-22T06:56:07.915Z,95682.81
2023-10-22T06:58:34.640Z,95685.09
2023-10-22T07:01:08.598Z,95691.19
2023-10-22T07:03:36.922Z,95694.59
2023-10-22T07:06:04.186Z,95698.03
2023-10-22T07:08:30.915Z,95695.41
2023-10-22T07:10:58.384Z,95714.03
2023-10-22T07:13:25.819Z,95709.13
2023-10-22T07:15:53.420Z,95704.63
2023-10-22T07:18:20.762Z,95702.75
2023-10-22T07:20:48.745Z,95707.66
2023-10-22T07:23:15.422Z,95716.00
2023-10-22T07:25:41.949Z,95715.63
2023-10-22T07:28:08.507Z,95720.94
2023-10-22T07:30:35.009Z,95728.50
2023-10-22T07:33:01.594Z,95733.03
2023-10-22T07:35:28.177Z,95739.47
2023-10-22T07:37:54.709Z,95735.69
2023-10-22T07:40:21.730Z,95737.22
2023-10-22T07:42:49.701Z,95731.91
2023-10-22T07:45:17.398Z,95736.47
2023-10-22T07:47:44.072Z,95744.81
2023-10-22T07:50:11.147Z,95749.38
2023-10-22T07:52:38.110Z,95753.94
2023-10-22T07:55:06.693Z,95756.56
2023-10-22T07:57:33.560Z,95761.88
2023-10-22T08:00:00.202Z,95768.72
2023-10-22T08:02:27.321Z,95758.50
2023-10-22T08:04:53.906Z,95763.78
2023-10-22T08:07:20.457Z,95755.84
2023-10-22T08:09:47.391Z,95758.47
2023-10-22T08:12:14.800Z,95768.69
2023-10-22T08:14:41.930Z,95766.81
2023-10-22T08:17:08.495Z,95761.88
2023-10-22T08:19:35.157Z,95774.38
2023-10-22T08:22:01.773Z,95777.03
2023-10-22T08:24:28.275Z,95770.63
2023-10-22T08:26:55.013Z,95775.16
2023-10-22T08:29:21.594Z,95785.78
2023-10-22T08:31:48.108Z,95781.97
2023-10-22T08:34:14.611Z,95785.78
2023-10-22T08:36:43.223Z,95790.34
2023-10-22T08:39:12.001Z,95794.13
2023-10-22T08:42:02.261Z,95799.44
2023-10-22T08:44:30.063Z,95800.19
2023-10-22T08:46:57.943Z,95803.94
2023-10-22T08:49:25.475Z,95801.66
2023-10-22T08:51:52.444Z,95804.66
2023-10-22T08:54:19.808Z,95805.78
2023-10-22T08:56:47.515Z,95808.47
2023-10-22T08:59:14.213Z,95809.59
2023-10-22T09:01:41.069Z,95809.56
2023-10-22T09:04:07.694Z,95798.59
2023-10-22T09:06:34.382Z,95797.03
2023-10-22T09:09:01.960Z,95814.06
2023-10-22T09:11:29.102Z,95820.50
2023-10-22T09:13:55.640Z,95825.06
2023-10-22T09:16:32.799Z,95823.53
2023-10-22T09:19:02.727Z,95819.25
2023-10-22T09:21:45.725Z,95823.16
2023-10-22T09:24:13.073Z,95830.94
2023-10-22T09:26:50.998Z,95827.19
2023-10-22T09:29:18.089Z,95831.81
2023-10-22T09:31:56.013Z,95836.28
2023-10-22T09:34:31.913Z,95837.47
2023-10-22T09:36:59.435Z,95834.78
2023-10-22T09:39:46.056Z,95840.44
2023-10-22T09:42:17.639Z,95840.44
2023-10-22T09:44:45.783Z,95837.69
2023-10-22T09:47:21.142Z,95835.91
2023-10-22T09:49:57.493Z,95841.09
2023-10-22T09:52:25.554Z,95843.00
2023-10-22T09:54:56.096Z,95836.13
2023-10-22T09:57:30.606Z,95838.03
2023-10-22T10:00:02.952Z,95850.06
2023-10-22T10:02:30.556Z,95846.09
2023-10-22T10:04:57.925Z,95847.41
2023-10-22T10:07:27.123Z,95838.66
2023-10-22T10:09:57.061Z,95845.63
2023-10-22T10:12:26.201Z,95838.09
2023-10-22T10:14:52.872Z,95842.25
2023-10-22T10:17:20.934Z,95836.59
2023-10-22T10:19:50.551Z,95826.78
2023-10-22T10:22:45.646Z,95838.06
2023-10-22T10:25:33.871Z,95837.59
2023-10-22T10:28:10.113Z,95835.44
2023-10-22T10:30:37.981Z,95833.66
2023-10-22T10:33:15.911Z,95836.28
2023-10-22T10:35:48.225Z,95816.66
2023-10-22T10:38:14.721Z,95825.06
2023-10-22T10:40:42.942Z,95823.97
2023-10-22T10:43:09.852Z,95817.44
2023-10-22T10:45:36.459Z,95810.84
2023-10-22T10:48:03.114Z,95820.88
2023-10-22T10:50:29.989Z,95823.84
2023-10-22T10:52:59.184Z,95824.72
2023-10-22T10:55:30.853Z,95826.31
2023-10-22T10:57:57.382Z,95823.59
2023-10-22T11:00:28.448Z,95815.28
2023-10-22T11:03:01.910Z,95823.72
2023-10-22T11:05:37.508Z,95817.72
2023-10-22T11:08:05.674Z,95826.06
2023-10-22T11:10:32.364Z,95826.25
2023-10-22T11:13:03.881Z,95828.94
2023-10-22T11:15:38.506Z,95829.69
2023-10-22T11:18:07.422Z,95822.28
2023-10-22T11:20:35.383Z,95817.47
2023-10-22T11:23:01.993Z,95817.38
2023-10-22T11:25:30.002Z,95822.34
2023-10-22T11:27:56.976Z,95813.31
2023-10-22T11:30:42.782Z,95801.63
2023-10-22T11:33:12.233Z,95810.97
2023-10-22T11:35:38.979Z,95808.41
2023-10-22T11:38:07.195Z,95802.56
2023-10-22T11:40:36.372Z,95802.75
2023-10-22T11:43:07.533Z,95805.88
2023-10-22T11:45:37.548Z,95803.84
2023-10-22T11:48:18.978Z,95805.78
2023-10-22T11:50:47.249Z,95810.25
2023-10-22T11:53:16.092Z,95798.31
2023-10-22T11:55:44.724Z,95810.75
2023-10-22T11:58:19.371Z,95820.34
2023-10-22T12:00:49.865Z,95810.75
2023-10-22T12:03:17.204Z,95812.00
2023-10-22T12:05:44.223Z,95794.66
2023-10-22T12:08:10.749Z,95813.63
2023-10-22T12:10:37.285Z,95804.56
2023-10-22T12:13:05.942Z,95809.94
2023-10-22T12:15:33.197Z,95818.84
2023-10-22T12:18:00.178Z,95816.59
2023-10-22T12:20:26.844Z,95824.63
2023-10-22T12:22:53.435Z,95813.44
2023-10-22T12:25:19.970Z,95813.38
2023-10-22T12:27:46.631Z,95806.34
2023-10-22T12:30:13.386Z,95805.28
2023-10-22T12:32:39.967Z,95806.41
2023-10-22T12:35:06.771Z,95797.34
2023-10-22T12:37:33.275Z,95815.97
2023-10-22T12:39:59.817Z,95816.41
2023-10-22T12:42:26.433Z,95807.88
2023-10-22T12:44:53.128Z,95818.09
2023-10-22T12:47:19.688Z,95811.25
2023-10-22T12:49:46.250Z,95830.22
2023-10-22T12:52:14.101Z,95824.03
2023-10-22T12:54:44.120Z,95827.56
2023-10-22T12:57:12.341Z,95827.13
2023-10-22T12:59:40.685Z,95823.69
2023-10-22T13:02:07.844Z,95814.50
2023-10-22T13:04:34.534Z,95825.47
2023-10-22T13:07:01.177Z,95819.97
2023-10-22T13:09:28.176Z,95823.91
2023-10-22T13:11:54.787Z,95824.06
2023-10-22T13:14:22.855Z,95827.50
2023-10-22T13:16:49.630Z,95809.25
2023-10-22T13:19:17.181Z,95825.13
2023-10-22T13:21:44.333Z,95833.03
2023-10-22T13:24:12.280Z,95826.13
2023-10-22T13:26:38.975Z,95828.97
2023-10-22T13:29:08.409Z,95842.06
2023-10-22T13:31:36.002Z,95836.84
2023-10-22T13:34:04.267Z,95846.78
2023-10-22T13:36:32.151Z,95833.97
2023-10-22T13:39:00.395Z,95839.59
2023-10-22T13:41:27.433Z,95846.31
2023-10-22T13:43:54.256Z,95846.91
2023-10-22T13:46:21.008Z,95844.09
2023-10-22T13:48:48.125Z,95845.03
2023-10-22T13:51:14.917Z,95852.94
2023-10-22T13:53:41.935Z,95854.50
2023-10-22T13:56:08.780Z,95854.53
2023-10-22T13:58:35.626Z,95844.28
2023-10-22T14:01:02.325Z,95852.59
2023-10-22T14:03:29.169Z,95850.56
2023-10-22T14:05:56.596Z,95853.19
2023-10-22T14:08:23.869Z,95862.81
2023-10-22T14:10:51.262Z,95860.53
2023-10-22T14:13:19.555Z,95857.53
2023-10-22T14:15:48.813Z,95853.00
2023-10-22T14:18:18.547Z,95852.25
2023-10-22T14:20:46.486Z,95857.28
2023-10-22T14:23:13.585Z,95858.88
2023-10-22T14:25:40.474Z,95868.03
2023-10-22T14:28:07.526Z,95865.00
2023-10-22T14:30:34.536Z,95872.25
2023-10-22T14:33:01.511Z,95868.94
2023-10-22T14:35:28.656Z,95855.88
2023-10-22T14:37:55.562Z,95884.41
2023-10-22T14:40:22.054Z,95887.88
2023-10-22T14:42:48.647Z,95884.56
2023-10-22T14:45:15.590Z,95872.50
2023-10-22T14:47:42.198Z,95875.97
2023-10-22T14:50:09.300Z,95881.72
2023-10-22T14:52:35.960Z,95877.59
2023-10-22T14:55:02.480Z,95875.69
2023-10-22T14:57:29.053Z,95879.47
2023-10-22T14:59:55.590Z,95870.38
2023-10-22T15:02:22.057Z,95873.03
2023-10-22T15:04:48.826Z,95876.44
2023-10-22T15:07:15.348Z,95882.50
2023-10-22T15:09:42.059Z,95881.38
2023-10-22T15:12:08.810Z,95885.56
2023-10-22T15:14:35.409Z,95882.16
2023-10-22T15:17:02.016Z,95883.72
2023-10-22T15:19:28.583Z,95886.78
2023-10-22T15:21:55.754Z,95890.97
2023-10-22T15:24:22.345Z,95891.78
2023-10-22T15:26:49.095Z,95892.94
2023-10-22T15:29:15.688Z,95886.50
2023-10-22T15:31:42.247Z,95896.78
2023-10-22T15:34:08.813Z,95897.94
2023-10-22T15:36:35.393Z,95892.66
2023-10-22T15:39:01.903Z,95896.09
2023-10-22T15:41:28.406Z,95892.69
2023-10-22T15:43:57.514Z,95885.84
2023-10-22T15:46:25.375Z,95903.69
2023-10-22T15:48:52.129Z,95896.91
2023-10-22T15:51:20.383Z,95894.63
2023-10-22T15:53:48.623Z,95902.56
2023-10-22T15:56:16.295Z,95898.03
2023-10-22T15:58:44.498Z,95894.22
2023-10-22T16:01:16.077Z,95901.00
2023-10-22T16:03:42.648Z,95909.34
2023-10-22T16:06:11.533Z,95910.09
2023-10-22T16:08:40.208Z,95912.69
2023-10-22T16:11:06.990Z,95913.38
2023-10-22T16:13:33.512Z,95922.84
2023-10-22T16:16:00.070Z,95915.53
2023-10-22T16:18:26.707Z,95925.03
2023-10-22T16:20:53.398Z,95923.47
2023-10-22T16:23:20.655Z,95932.16
2023-10-22T16:25:48.075Z,95933.25
2023-10-22T16:28:15.301Z,95934.34
2023-10-22T16:30:46.422Z,95933.19
2023-10-22T16:33:14.590Z,95936.91
2023-10-22T16:35:41.196Z,95944.81
2023-10-22T16:38:07.994Z,95944.72
2023-10-22T16:40:37.844Z,95940.13
2023-10-22T16:43:04.380Z,95959.03
2023-10-22T16:45:31.000Z,95962.34
2023-10-22T16:47:57.660Z,95952.84
2023-10-22T16:50:24.318Z,95951.66
2023-10-22T16:52:50.834Z,95950.81
2023-10-22T16:55:17.412Z,95952.28
2023-10-22T16:57:44.156Z,95948.81
2023-10-22T17:00:12.215Z,95956.00
2023-10-22T17:02:39.024Z,95949.88
2023-10-22T17:05:06.125Z,95947.97
2023-10-22T17:07:34.625Z,95951.69
2023-10-22T17:10:01.940Z,95944.41
2023-10-22T17:12:28.542Z,95954.56
2023-10-22T17:14:55.107Z,95945.78
2023-10-22T17:17:21.646Z,95960.47
2023-10-22T17:19:48.386Z,95966.78
2023-10-22T17:22:15.099Z,95964.47
2023-10-22T17:24:41.666Z,95962.06
2023-10-22T17:27:08.247Z,95970.00
2023-10-22T17:29:34.733Z,95966.47
2023-10-22T17:32:01.344Z,95964.81
2023-10-22T17:34:27.890Z,95960.94
2023-10-22T17:36:54.545Z,95965.44
2023-10-22T17:39:21.103Z,95976.00
2023-10-22T17:41:47.668Z,95960.31
2023-10-22T17:44:14.181Z,95981.19
2023-10-22T17:46:40.792Z,95991.44
2023-10-22T17:49:08.051Z,95980.38
2023-10-22T17:51:35.485Z,95987.19
2023-10-22T17:54:02.562Z,95992.41
2023-10-22T17:56:29.856Z,95982.06
2023-10-22T17:58:56.473Z,95974.78
2023-10-22T18:01:23.164Z,95978.59
2023-10-22T18:03:50.022Z,95983.06
2023-10-22T18:06:17.508Z,95987.16
2023-10-22T18:08:45.139Z,95998.16
2023-10-22T18:11:11.923Z,96002.50
2023-10-22T18:13:38.513Z,95984.84
2023-10-22T18:16:05.416Z,95999.34
2023-10-22T18:18:31.975Z,96001.53
2023-10-22T18:21:04.986Z,96002.63
2023-10-22T18:23:33.271Z,96002.78
2023-10-22T18:26:04.724Z,96004.88
2023-10-22T18:28:34.871Z,96004.84
2023-10-22T18:31:06.210Z,96011.63
2023-10-22T18:33:32.871Z,96012.75
2023-10-22T18:36:02.156Z,96002.41
2023-10-22T18:38:32.888Z,96020.97
2023-10-22T18:41:12.390Z,96020.88
2023-10-22T18:43:40.216Z,96016.72
2023-10-22T18:46:11.598Z,96010.19
2023-10-22T18:48:38.173Z,96018.03
2023-10-22T18:51:04.941Z,96021.00
2023-10-22T18:53:32.194Z,96031.91
2023-10-22T18:56:04.580Z,96022.34
2023-10-22T18:58:37.656Z,96027.19
2023-10-22T19:01:24.926Z,96034.41
2023-10-22T19:03:53.100Z,96041.50
2023-10-22T19:06:24.564Z,96043.38
2023-10-22T19:08:51.575Z,96047.88
2023-10-22T19:11:18.166Z,96033.44
2023-10-22T19:13:45.572Z,96026.91
2023-10-22T19:16:12.421Z,96046.06
2023-10-22T19:18:39.460Z,96033.34
2023-10-22T19:21:08.601Z,96042.50
2023-10-22T19:23:35.598Z,96040.88
2023-10-22T19:26:04.389Z,96048.16
2023-10-22T19:28:31.470Z,96039.00
2023-10-22T19:30:59.637Z,96048.25
2023-10-22T19:33:35.501Z,96026.13
2023-10-22T19:36:02.204Z,96041.31
2023-10-22T19:38:29.990Z,96041.84
2023-10-22T19:40:59.970Z,96048.25
2023-10-22T19:43:27.055Z,96053.66
2023-10-22T19:45:55.391Z,96057.41
2023-10-22T19:48:23.906Z,96056.47
2023-10-22T19:51:00.085Z,96061.31
2023-10-22T19:53:26.734Z,96043.06
2023-10-22T19:55:53.267Z,96062.09
2023-10-22T19:58:19.793Z,96044.16
2023-10-22T20:00:46.316Z,96054.03
2023-10-22T20:03:13.013Z,96050.56
2023-10-22T20:05:41.701Z,96050.38
2023-10-22T20:08:08.461Z,96053.81
2023-10-22T20:10:43.117Z,96050.47
2023-10-22T20:13:10.807Z,96055.06
2023-10-22T20:15:38.655Z,96057.34
2023-10-22T20:18:08.164Z,96050.13
2023-10-22T20:20:35.263Z,96051.16
2023-10-22T20:23:01.842Z,96069.41
2023-10-22T20:25:28.360Z,96058.47
2023-10-22T20:27:55.003Z,96065.59
2023-10-22T20:30:21.536Z,96062.19
2023-10-22T20:32:48.123Z,96067.38
2023-10-22T20:35:14.713Z,96074.78
2023-10-22T20:37:43.276Z,96081.06
2023-10-22T20:40:10.339Z,96076.16
2023-10-22T20:42:36.865Z,96070.53
2023-10-22T20:45:04.643Z,96065.00
2023-10-22T20:47:31.302Z,96069.25
2023-10-22T20:49:57.865Z,96063.13
2023-10-22T20:52:24.450Z,96056.53
2023-10-22T20:54:51.976Z,96061.88
2023-10-22T20:57:18.896Z,96069.69
2023-10-22T20:59:45.492Z,96063.91
2023-10-22T21:02:12.126Z,96056.78
2023-10-22T21:04:38.925Z,96074.34
2023-10-22T21:07:05.869Z,96069.53
2023-10-22T21:09:32.486Z,96069.59
2023-10-22T21:11:59.121Z,96065.53
2023-10-22T21:14:26.100Z,96068.06
2023-10-22T21:16:53.637Z,96057.78
2023-10-22T21:19:20.202Z,96066.91
2023-10-22T21:21:48.949Z,96069.19
2023-10-22T21:24:16.126Z,96073.78
2023-10-22T21:26:42.696Z,96073.06
2023-10-22T21:29:09.235Z,96073.00
2023-10-22T21:31:35.760Z,96073.28
2023-10-22T21:34:03.003Z,96067.47
2023-10-22T21:36:29.535Z,96076.47
2023-10-22T21:38:56.124Z,96067.31
2023-10-22T21:41:22.699Z,96068.06
2023-10-22T21:43:49.511Z,96068.84
2023-10-22T21:46:16.032Z,96071.22
2023-10-22T21:48:42.745Z,96070.09
2023-10-22T21:51:09.513Z,96075.63
2023-10-22T21:53:36.586Z,96063.22
2023-10-22T21:56:03.918Z,96055.25
2023-10-22T21:58:31.759Z,96050.31
2023-10-22T22:01:01.020Z,96051.06
2023-10-22T22:03:28.173Z,96055.56
2023-10-22T22:05:54.874Z,96072.22
2023-10-22T22:08:21.528Z,96069.59
2023-10-22T22:10:48.036Z,96069.09
2023-10-22T22:13:16.615Z,96066.34
2023-10-22T22:15:43.302Z,96061.78
2023-10-22T22:18:09.950Z,96063.97
2023-10-22T22:20:36.580Z,96070.28
2023-10-22T22:23:03.314Z,96066.97
2023-10-22T22:25:41.587Z,96069.59
2023-10-22T22:28:11.817Z,96079.44
2023-10-22T22:30:38.369Z,96066.28
2023-10-22T22:33:04.991Z,96071.97
2023-10-22T22:35:31.747Z,96075.38
2023-10-22T22:37:58.254Z,96062.09
2023-10-22T22:40:24.791Z,96076.81
2023-10-22T22:42:51.371Z,96086.66
2023-10-22T22:45:18.031Z,96071.56
2023-10-22T22:47:44.858Z,96082.59
2023-10-22T22:50:11.401Z,96085.66
2023-10-22T22:52:37.972Z,96087.19
2023-10-22T22:55:05.798Z,96076.06
2023-10-22T22:57:33.269Z,96079.09
2023-10-22T23:00:01.213Z,96081.84
2023-10-22T23:02:27.837Z,96078.50
2023-10-22T23:04:55.510Z,96064.97
2023-10-22T23:07:25.859Z,96064.59
2023-10-22T23:09:53.028Z,96033.16
2023-10-22T23:12:20.148Z,96062.91
2023-10-22T23:14:47.699Z,96049.53
2023-10-22T23:17:14.377Z,96053.88
2023-10-22T23:19:41.392Z,96032.22
2023-10-22T23:22:07.916Z,96031.31
2023-10-22T23:24:34.478Z,96032.41
2023-10-22T23:27:01.084Z,96035.13
2023-10-22T23:29:27.589Z,96037.41
2023-10-22T23:31:54.069Z,96040.72
2023-10-22T23:34:20.668Z,96040.81
2023-10-22T23:36:47.190Z,96040.81
2023-10-22T23:39:13.760Z,96030.72
2023-10-22T23:41:40.273Z,96042.50
2023-10-22T23:44:07.455Z,96023.69
2023-10-22T23:46:34.114Z,96031.13
2023-10-22T23:49:00.720Z,96034.09
2023-10-22T23:51:27.270Z,96039.22
2023-10-22T23:53:53.820Z,96038.00
2023-10-22T23:56:20.429Z,96028.06
2023-10-22T23:58:46.920Z,96035.28
